sensor_id;sensor_type;location;lat;lon;timestamp;pressure;altitude;pressure_sealevel;temperature;humidity
35989;BME280;22064;42.672;23.282;2023-04-15T00:00:10;93917.53;;;6.77;100.00
35989;BME280;22064;42.672;23.282;2023-04-15T00:02:39;93933.91;;;6.65;100.00
35989;BME280;22064;42.672;23.282;2023-04-15T00:05:05;93944.09;;;6.55;100.00
35989;BME280;22064;42.672;23.282;2023-04-15T00:07:31;93933.59;;;6.62;100.00
35989;BME280;22064;42.672;23.282;2023-04-15T00:09:58;93929.53;;;6.83;100.00
35989;BME280;22064;42.672;23.282;2023-04-15T00:12:24;93929.84;;;7.03;100.00
35989;BME280;22064;42.672;23.282;2023-04-15T00:14:51;93924.19;;;7.23;100.00
35989;BME280;22064;42.672;23.282;2023-04-15T00:17:17;93919.69;;;7.35;100.00
35989;BME280;22064;42.672;23.282;2023-04-15T00:19:43;93929.91;;;7.47;100.00
35989;BME280;22064;42.672;23.282;2023-04-15T00:22:11;93937.38;;;7.60;100.00
35989;BME280;22064;42.672;23.282;2023-04-15T00:24:37;93929.41;;;7.67;100.00
35989;BME280;22064;42.672;23.282;2023-04-15T00:27:03;93930.78;;;7.75;100.00
35989;BME280;22064;42.672;23.282;2023-04-15T00:29:31;93927.78;;;7.83;100.00
35989;BME280;22064;42.672;23.282;2023-04-15T00:31:57;93929.72;;;7.71;100.00
35989;BME280;22064;42.672;23.282;2023-04-15T00:34:23;93932.22;;;7.87;100.00
35989;BME280;22064;42.672;23.282;2023-04-15T00:36:50;93934.78;;;7.60;100.00
35989;BME280;22064;42.672;23.282;2023-04-15T00:39:17;93925.66;;;7.36;100.00
35989;BME280;22064;42.672;23.282;2023-04-15T00:41:43;93926.56;;;7.47;100.00
35989;BME280;22064;42.672;23.282;2023-04-15T00:44:11;93916.75;;;7.49;100.00
35989;BME280;22064;42.672;23.282;2023-04-15T00:46:38;93923.59;;;7.60;100.00
35989;BME280;22064;42.672;23.282;2023-04-15T00:49:05;93921.94;;;7.71;100.00
35989;BME280;22064;42.672;23.282;2023-04-15T00:51:33;93925.31;;;7.71;100.00
35989;BME280;22064;42.672;23.282;2023-04-15T00:54:04;93913.13;;;7.72;100.00
35989;BME280;22064;42.672;23.282;2023-04-15T00:56:34;93929.72;;;7.71;100.00
35989;BME280;22064;42.672;23.282;2023-04-15T00:59:01;93923.69;;;7.65;100.00
35989;BME280;22064;42.672;23.282;2023-04-15T01:01:27;93923.56;;;7.77;100.00
35989;BME280;22064;42.672;23.282;2023-04-15T01:03:55;93933.84;;;7.94;100.00
35989;BME280;22064;42.672;23.282;2023-04-15T01:06:23;93936.22;;;7.95;100.00
35989;BME280;22064;42.672;23.282;2023-04-15T01:08:49;93953.41;;;8.01;100.00
35989;BME280;22064;42.672;23.282;2023-04-15T01:11:16;93950.03;;;8.01;100.00
35989;BME280;22064;42.672;23.282;2023-04-15T01:13:42;93950.31;;;8.04;100.00
35989;BME280;22064;42.672;23.282;2023-04-15T01:16:08;93937.84;;;8.01;100.00
35989;BME280;22064;42.672;23.282;2023-04-15T01:18:35;93934.97;;;7.98;100.00
35989;BME280;22064;42.672;23.282;2023-04-15T01:21:03;93932.22;;;8.09;100.00
35989;BME280;22064;42.672;23.282;2023-04-15T01:23:31;93937.06;;;7.79;100.00
35989;BME280;22064;42.672;23.282;2023-04-15T01:25:58;93933.50;;;7.63;100.00
35989;BME280;22064;42.672;23.282;2023-04-15T01:28:24;93932.97;;;7.61;100.00
35989;BME280;22064;42.672;23.282;2023-04-15T01:31:05;93927.13;;;7.71;100.00
35989;BME280;22064;42.672;23.282;2023-04-15T01:33:35;93925.50;;;7.64;100.00
35989;BME280;22064;42.672;23.282;2023-04-15T01:36:01;93931.34;;;7.77;100.00
35989;BME280;22064;42.672;23.282;2023-04-15T01:38:28;93932.72;;;7.62;100.00
35989;BME280;22064;42.672;23.282;2023-04-15T01:40:54;93925.72;;;7.63;100.00
35989;BME280;22064;42.672;23.282;2023-04-15T01:43:20;93933.47;;;7.41;100.00
35989;BME280;22064;42.672;23.282;2023-04-15T01:45:46;93927.97;;;6.99;100.00
35989;BME280;22064;42.672;23.282;2023-04-15T01:48:12;93931.09;;;6.84;100.00
35989;BME280;22064;42.672;23.282;2023-04-15T01:50:38;93939.97;;;6.71;100.00
35989;BME280;22064;42.672;23.282;2023-04-15T01:53:04;93933.38;;;6.80;100.00
35989;BME280;22064;42.672;23.282;2023-04-15T01:55:30;93940.66;;;7.00;100.00
35989;BME280;22064;42.672;23.282;2023-04-15T01:57:56;93940.97;;;7.04;100.00
35989;BME280;22064;42.672;23.282;2023-04-15T02:00:22;93941.75;;;6.87;100.00
35989;BME280;22064;42.672;23.282;2023-04-15T02:02:48;93944.75;;;6.79;100.00
35989;BME280;22064;42.672;23.282;2023-04-15T02:05:15;93948.50;;;6.71;100.00
35989;BME280;22064;42.672;23.282;2023-04-15T02:07:46;93939.41;;;6.52;100.00
35989;BME280;22064;42.672;23.282;2023-04-15T02:10:13;93940.19;;;6.53;100.00
35989;BME280;22064;42.672;23.282;2023-04-15T02:12:41;93936.91;;;6.74;100.00
35989;BME280;22064;42.672;23.282;2023-04-15T02:15:07;93931.09;;;6.84;100.00
35989;BME280;22064;42.672;23.282;2023-04-15T02:17:35;93923.56;;;6.99;100.00
35989;BME280;22064;42.672;23.282;2023-04-15T02:20:02;93940.59;;;7.12;100.00
35989;BME280;22064;42.672;23.282;2023-04-15T02:22:31;93937.69;;;6.91;100.00
35989;BME280;22064;42.672;23.282;2023-04-15T02:24:57;93930.47;;;6.77;100.00
35989;BME280;22064;42.672;23.282;2023-04-15T02:27:23;93929.06;;;6.52;100.00
35989;BME280;22064;42.672;23.282;2023-04-15T02:29:49;93939.88;;;6.49;100.00
35989;BME280;22064;42.672;23.282;2023-04-15T02:32:18;93947.56;;;6.32;100.00
35989;BME280;22064;42.672;23.282;2023-04-15T02:34:45;93947.44;;;6.39;100.00
35989;BME280;22064;42.672;23.282;2023-04-15T02:37:13;93929.06;;;5.95;100.00
35989;BME280;22064;42.672;23.282;2023-04-15T02:39:39;93943.75;;;6.06;100.00
35989;BME280;22064;42.672;23.282;2023-04-15T02:42:04;93943.09;;;6.28;100.00
35989;BME280;22064;42.672;23.282;2023-04-15T02:44:31;93938.41;;;6.24;100.00
35989;BME280;22064;42.672;23.282;2023-04-15T02:47:01;93940.59;;;6.04;100.00
35989;BME280;22064;42.672;23.282;2023-04-15T02:49:28;93940.72;;;6.09;100.00
35989;BME280;22064;42.672;23.282;2023-04-15T02:51:57;93948.03;;;6.00;100.00
35989;BME280;22064;42.672;23.282;2023-04-15T02:54:25;93946.16;;;5.72;100.00
35989;BME280;22064;42.672;23.282;2023-04-15T02:56:53;93953.94;;;5.61;100.00
35989;BME280;22064;42.672;23.282;2023-04-15T02:59:21;93952.06;;;5.56;100.00
35989;BME280;22064;42.672;23.282;2023-04-15T03:01:47;93949.59;;;5.38;100.00
35989;BME280;22064;42.672;23.282;2023-04-15T03:04:13;93952.06;;;5.32;100.00
35989;BME280;22064;42.672;23.282;2023-04-15T03:06:38;93962.16;;;5.22;100.00
35989;BME280;22064;42.672;23.282;2023-04-15T03:09:07;93945.00;;;5.16;100.00
35989;BME280;22064;42.672;23.282;2023-04-15T03:11:35;93966.00;;;5.31;100.00
35989;BME280;22064;42.672;23.282;2023-04-15T03:14:08;93959.34;;;5.47;100.00
35989;BME280;22064;42.672;23.282;2023-04-15T03:16:36;93973.28;;;5.35;100.00
35989;BME280;22064;42.672;23.282;2023-04-15T03:19:03;93974.06;;;5.47;100.00
35989;BME280;22064;42.672;23.282;2023-04-15T03:21:29;93978.13;;;5.54;100.00
35989;BME280;22064;42.672;23.282;2023-04-15T03:23:55;93962.84;;;5.41;100.00
35989;BME280;22064;42.672;23.282;2023-04-15T03:26:30;93976.31;;;5.55;100.00
35989;BME280;22064;42.672;23.282;2023-04-15T03:29:02;93978.13;;;5.54;100.00
35989;BME280;22064;42.672;23.282;2023-04-15T03:31:28;93978.78;;;5.26;100.00
35989;BME280;22064;42.672;23.282;2023-04-15T03:33:54;93978.44;;;5.23;100.00
35989;BME280;22064;42.672;23.282;2023-04-15T03:36:20;93969.13;;;5.33;100.00
35989;BME280;22064;42.672;23.282;2023-04-15T03:38:46;93984.19;;;5.25;100.00
35989;BME280;22064;42.672;23.282;2023-04-15T03:41:13;93978.66;;;4.98;100.00
35989;BME280;22064;42.672;23.282;2023-04-15T03:43:39;93989.66;;;5.05;100.00
35989;BME280;22064;42.672;23.282;2023-04-15T03:46:05;93999.41;;;5.03;100.00
35989;BME280;22064;42.672;23.282;2023-04-15T03:48:32;94008.97;;;5.02;100.00
35989;BME280;22064;42.672;23.282;2023-04-15T03:50:57;94023.66;;;5.02;100.00
35989;BME280;22064;42.672;23.282;2023-04-15T03:53:23;94014.47;;;5.06;100.00
35989;BME280;22064;42.672;23.282;2023-04-15T03:55:50;94010.19;;;5.00;100.00
35989;BME280;22064;42.672;23.282;2023-04-15T03:58:16;94021.97;;;4.96;100.00
35989;BME280;22064;42.672;23.282;2023-04-15T04:00:42;94019.00;;;4.92;100.00
35989;BME280;22064;42.672;23.282;2023-04-15T04:03:08;94007.81;;;4.98;100.00
35989;BME280;22064;42.672;23.282;2023-04-15T04:05:34;94019.00;;;4.80;100.00
35989;BME280;22064;42.672;23.282;2023-04-15T04:08:03;94020.25;;;4.90;100.00
35989;BME280;22064;42.672;23.282;2023-04-15T04:10:29;94021.69;;;4.85;100.00
35989;BME280;22064;42.672;23.282;2023-04-15T04:12:55;94013.34;;;5.25;100.00
35989;BME280;22064;42.672;23.282;2023-04-15T04:15:21;94015.94;;;5.49;100.00
35989;BME280;22064;42.672;23.282;2023-04-15T04:17:47;94029.06;;;5.59;100.00
35989;BME280;22064;42.672;23.282;2023-04-15T04:20:13;94018.03;;;5.75;100.00
35989;BME280;22064;42.672;23.282;2023-04-15T04:22:40;94026.78;;;6.10;100.00
35989;BME280;22064;42.672;23.282;2023-04-15T04:25:06;94025.81;;;6.39;100.00
35989;BME280;22064;42.672;23.282;2023-04-15T04:27:33;94027.78;;;6.78;100.00
35989;BME280;22064;42.672;23.282;2023-04-15T04:30:00;94018.03;;;7.13;100.00
35989;BME280;22064;42.672;23.282;2023-04-15T04:32:26;94023.59;;;7.05;100.00
35989;BME280;22064;42.672;23.282;2023-04-15T04:34:52;94014.72;;;7.18;100.00
35989;BME280;22064;42.672;23.282;2023-04-15T04:37:18;94023.78;;;6.87;100.00
35989;BME280;22064;42.672;23.282;2023-04-15T04:39:44;94027.56;;;6.79;100.00
35989;BME280;22064;42.672;23.282;2023-04-15T04:42:11;94020.13;;;6.83;100.00
35989;BME280;22064;42.672;23.282;2023-04-15T04:44:37;94033.69;;;6.33;100.00
35989;BME280;22064;42.672;23.282;2023-04-15T04:47:02;94034.66;;;6.15;100.00
35989;BME280;22064;42.672;23.282;2023-04-15T04:49:28;94033.44;;;5.94;100.00
35989;BME280;22064;42.672;23.282;2023-04-15T04:51:55;94038.47;;;6.12;100.00
35989;BME280;22064;42.672;23.282;2023-04-15T04:54:21;94030.91;;;6.22;100.00
35989;BME280;22064;42.672;23.282;2023-04-15T04:56:47;94037.88;;;6.22;100.00
35989;BME280;22064;42.672;23.282;2023-04-15T04:59:12;94046.72;;;6.38;100.00
35989;BME280;22064;42.672;23.282;2023-04-15T05:01:38;94051.38;;;6.24;100.00
35989;BME280;22064;42.672;23.282;2023-04-15T05:04:04;94058.22;;;6.59;100.00
35989;BME280;22064;42.672;23.282;2023-04-15T05:06:32;94063.84;;;6.84;100.00
35989;BME280;22064;42.672;23.282;2023-04-15T05:08:58;94066.09;;;6.92;100.00
35989;BME280;22064;42.672;23.282;2023-04-15T05:11:24;94077.31;;;6.98;100.00
35989;BME280;22064;42.672;23.282;2023-04-15T05:13:50;94072.00;;;7.22;100.00
35989;BME280;22064;42.672;23.282;2023-04-15T05:16:16;94079.06;;;7.43;100.00
35989;BME280;22064;42.672;23.282;2023-04-15T05:18:43;94094.88;;;7.42;100.00
35989;BME280;22064;42.672;23.282;2023-04-15T05:21:09;94080.00;;;7.37;100.00
35989;BME280;22064;42.672;23.282;2023-04-15T05:23:35;94080.81;;;7.54;100.00
35989;BME280;22064;42.672;23.282;2023-04-15T05:26:01;94083.78;;;7.80;100.00
35989;BME280;22064;42.672;23.282;2023-04-15T05:28:27;94085.84;;;8.00;100.00
35989;BME280;22064;42.672;23.282;2023-04-15T05:30:53;94072.38;;;8.20;100.00
35989;BME280;22064;42.672;23.282;2023-04-15T05:33:19;94074.03;;;8.26;100.00
35989;BME280;22064;42.672;23.282;2023-04-15T05:35:44;94078.38;;;8.42;100.00
35989;BME280;22064;42.672;23.282;2023-04-15T05:38:10;94076.03;;;8.41;100.00
35989;BME280;22064;42.672;23.282;2023-04-15T05:40:36;94069.34;;;8.45;100.00
35989;BME280;22064;42.672;23.282;2023-04-15T05:43:02;94077.72;;;8.52;100.00
35989;BME280;22064;42.672;23.282;2023-04-15T05:45:28;94074.25;;;8.68;100.00
35989;BME280;22064;42.672;23.282;2023-04-15T05:47:54;94085.50;;;9.01;100.00
35989;BME280;22064;42.672;23.282;2023-04-15T05:50:22;94080.56;;;8.99;100.00
35989;BME280;22064;42.672;23.282;2023-04-15T05:52:48;94080.13;;;9.08;100.00
35989;BME280;22064;42.672;23.282;2023-04-15T05:55:14;94072.88;;;9.10;100.00
35989;BME280;22064;42.672;23.282;2023-04-15T05:57:40;94084.03;;;8.83;100.00
35989;BME280;22064;42.672;23.282;2023-04-15T06:00:07;94091.25;;;8.81;100.00
35989;BME280;22064;42.672;23.282;2023-04-15T06:02:36;94094.50;;;8.93;100.00
35989;BME280;22064;42.672;23.282;2023-04-15T06:05:02;94088.19;;;8.84;100.00
35989;BME280;22064;42.672;23.282;2023-04-15T06:07:28;94096.63;;;8.96;100.00
35989;BME280;22064;42.672;23.282;2023-04-15T06:09:54;94095.31;;;8.72;100.00
35989;BME280;22064;42.672;23.282;2023-04-15T06:12:21;94092.81;;;9.04;100.00
35989;BME280;22064;42.672;23.282;2023-04-15T06:14:47;94100.19;;;9.44;100.00
35989;BME280;22064;42.672;23.282;2023-04-15T06:17:14;94101.88;;;9.61;100.00
35989;BME280;22064;42.672;23.282;2023-04-15T06:19:40;94099.94;;;9.78;100.00
35989;BME280;22064;42.672;23.282;2023-04-15T06:22:06;94092.53;;;10.02;100.00
35989;BME280;22064;42.672;23.282;2023-04-15T06:24:32;94108.56;;;10.26;100.00
35989;BME280;22064;42.672;23.282;2023-04-15T06:26:58;94105.34;;;10.14;100.00
35989;BME280;22064;42.672;23.282;2023-04-15T06:29:24;94121.59;;;10.26;100.00
35989;BME280;22064;42.672;23.282;2023-04-15T06:31:50;94113.28;;;10.29;100.00
35989;BME280;22064;42.672;23.282;2023-04-15T06:34:16;94123.22;;;10.43;100.00
35989;BME280;22064;42.672;23.282;2023-04-15T06:36:43;94124.84;;;10.54;100.00
35989;BME280;22064;42.672;23.282;2023-04-15T06:39:08;94129.59;;;10.67;100.00
35989;BME280;22064;42.672;23.282;2023-04-15T06:41:35;94130.34;;;10.62;100.00
35989;BME280;22064;42.672;23.282;2023-04-15T06:44:01;94125.50;;;10.81;100.00
35989;BME280;22064;42.672;23.282;2023-04-15T06:46:27;94119.47;;;10.81;100.00
35989;BME280;22064;42.672;23.282;2023-04-15T06:48:53;94135.72;;;11.08;100.00
35989;BME280;22064;42.672;23.282;2023-04-15T06:51:18;94128.97;;;11.18;100.00
35989;BME280;22064;42.672;23.282;2023-04-15T06:53:44;94139.88;;;11.04;100.00
35989;BME280;22064;42.672;23.282;2023-04-15T06:56:10;94129.16;;;10.91;100.00
35989;BME280;22064;42.672;23.282;2023-04-15T06:58:36;94134.41;;;11.01;100.00
35989;BME280;22064;42.672;23.282;2023-04-15T07:01:02;94129.53;;;11.35;100.00
35989;BME280;22064;42.672;23.282;2023-04-15T07:03:29;94124.06;;;11.42;100.00
35989;BME280;22064;42.672;23.282;2023-04-15T07:05:54;94118.59;;;11.59;100.00
35989;BME280;22064;42.672;23.282;2023-04-15T07:08:21;94124.63;;;11.85;100.00
35989;BME280;22064;42.672;23.282;2023-04-15T07:10:47;94123.00;;;11.84;100.00
35989;BME280;22064;42.672;23.282;2023-04-15T07:13:13;94120.44;;;11.94;100.00
35989;BME280;22064;42.672;23.282;2023-04-15T07:15:39;94137.41;;;12.07;100.00
35989;BME280;22064;42.672;23.282;2023-04-15T07:18:05;94123.28;;;12.28;96.42
35989;BME280;22064;42.672;23.282;2023-04-15T07:20:32;94113.09;;;12.37;96.17
35989;BME280;22064;42.672;23.282;2023-04-15T07:22:58;94118.75;;;12.54;91.36
35989;BME280;22064;42.672;23.282;2023-04-15T07:25:24;94118.34;;;12.91;87.10
35989;BME280;22064;42.672;23.282;2023-04-15T07:27:51;94123.34;;;12.88;88.06
35989;BME280;22064;42.672;23.282;2023-04-15T07:30:18;94133.72;;;13.03;86.32
35989;BME280;22064;42.672;23.282;2023-04-15T07:32:44;94133.00;;;13.42;83.57
35989;BME280;22064;42.672;23.282;2023-04-15T07:35:10;94130.44;;;13.37;82.32
35989;BME280;22064;42.672;23.282;2023-04-15T07:37:36;94132.00;;;13.33;74.86
35989;BME280;22064;42.672;23.282;2023-04-15T07:40:02;94124.19;;;13.23;79.23
35989;BME280;22064;42.672;23.282;2023-04-15T07:42:29;94115.13;;;13.15;82.32
35989;BME280;22064;42.672;23.282;2023-04-15T07:44:55;94123.13;;;13.34;84.39
35989;BME280;22064;42.672;23.282;2023-04-15T07:47:22;94126.75;;;13.38;86.18
35989;BME280;22064;42.672;23.282;2023-04-15T07:49:48;94132.50;;;13.40;82.74
35989;BME280;22064;42.672;23.282;2023-04-15T07:52:16;94134.03;;;13.46;77.18
35989;BME280;22064;42.672;23.282;2023-04-15T07:54:42;94136.13;;;13.44;76.54
35989;BME280;22064;42.672;23.282;2023-04-15T07:57:08;94147.66;;;13.43;76.27
35989;BME280;22064;42.672;23.282;2023-04-15T07:59:34;94144.44;;;13.51;74.52
35989;BME280;22064;42.672;23.282;2023-04-15T08:02:01;94140.00;;;13.86;71.56
35989;BME280;22064;42.672;23.282;2023-04-15T08:04:27;94132.09;;;13.96;72.24
35989;BME280;22064;42.672;23.282;2023-04-15T08:06:53;94155.94;;;14.24;65.72
35989;BME280;22064;42.672;23.282;2023-04-15T08:09:19;94149.44;;;14.45;59.03
35989;BME280;22064;42.672;23.282;2023-04-15T08:11:47;94145.59;;;14.38;56.71
35989;BME280;22064;42.672;23.282;2023-04-15T08:14:14;94148.47;;;13.38;55.28
35989;BME280;22064;42.672;23.282;2023-04-15T08:16:40;94141.28;;;13.54;55.16
35989;BME280;22064;42.672;23.282;2023-04-15T08:19:06;94135.88;;;13.80;55.43
35989;BME280;22064;42.672;23.282;2023-04-15T08:21:32;94138.09;;;13.68;54.58
35989;BME280;22064;42.672;23.282;2023-04-15T08:23:58;94133.75;;;13.48;53.48
35989;BME280;22064;42.672;23.282;2023-04-15T08:26:24;94138.66;;;13.59;52.92
35989;BME280;22064;42.672;23.282;2023-04-15T08:28:51;94134.50;;;13.93;53.28
35989;BME280;22064;42.672;23.282;2023-04-15T08:31:17;94147.44;;;14.37;51.35
35989;BME280;22064;42.672;23.282;2023-04-15T08:33:44;94142.19;;;14.37;51.70
35989;BME280;22064;42.672;23.282;2023-04-15T08:36:10;94139.16;;;15.02;50.21
35989;BME280;22064;42.672;23.282;2023-04-15T08:38:36;94135.53;;;15.17;49.00
35989;BME280;22064;42.672;23.282;2023-04-15T08:41:16;94127.34;;;15.23;50.26
35989;BME280;22064;42.672;23.282;2023-04-15T08:43:50;94121.09;;;15.76;48.64
35989;BME280;22064;42.672;23.282;2023-04-15T08:46:17;94119.50;;;15.94;47.82
35989;BME280;22064;42.672;23.282;2023-04-15T08:48:45;94116.75;;;15.47;47.41
35989;BME280;22064;42.672;23.282;2023-04-15T08:51:12;94122.66;;;14.77;47.02
35989;BME280;22064;42.672;23.282;2023-04-15T08:53:43;94106.50;;;14.70;48.03
35989;BME280;22064;42.672;23.282;2023-04-15T08:56:11;94107.41;;;15.04;48.17
35989;BME280;22064;42.672;23.282;2023-04-15T08:58:38;94095.16;;;14.99;47.02
35989;BME280;22064;42.672;23.282;2023-04-15T09:01:04;94112.28;;;15.10;44.96
35989;BME280;22064;42.672;23.282;2023-04-15T09:03:31;94110.09;;;14.98;46.37
35989;BME280;22064;42.672;23.282;2023-04-15T09:05:58;94106.94;;;14.77;46.75
35989;BME280;22064;42.672;23.282;2023-04-15T09:08:24;94106.13;;;14.58;45.41
35989;BME280;22064;42.672;23.282;2023-04-15T09:10:50;94100.28;;;14.85;45.60
35989;BME280;22064;42.672;23.282;2023-04-15T09:13:17;94099.41;;;15.52;44.25
35989;BME280;22064;42.672;23.282;2023-04-15T09:15:43;94105.22;;;16.00;43.34
35989;BME280;22064;42.672;23.282;2023-04-15T09:18:13;94092.63;;;16.44;42.26
35989;BME280;22064;42.672;23.282;2023-04-15T09:20:52;94079.69;;;16.75;41.15
35989;BME280;22064;42.672;23.282;2023-04-15T09:23:18;94090.78;;;16.99;38.74
35989;BME280;22064;42.672;23.282;2023-04-15T09:25:44;94085.28;;;17.23;34.65
35989;BME280;22064;42.672;23.282;2023-04-15T09:28:10;94098.47;;;17.09;34.19
35989;BME280;22064;42.672;23.282;2023-04-15T09:30:36;94095.22;;;16.76;33.81
35989;BME280;22064;42.672;23.282;2023-04-15T09:33:03;94089.44;;;16.60;34.15
35989;BME280;22064;42.672;23.282;2023-04-15T09:35:35;94095.19;;;16.62;33.70
35989;BME280;22064;42.672;23.282;2023-04-15T09:38:03;94100.16;;;16.78;32.68
35989;BME280;22064;42.672;23.282;2023-04-15T09:42:58;94085.94;;;16.65;33.59
35989;BME280;22064;42.672;23.282;2023-04-15T09:45:24;94076.97;;;16.52;34.90
35989;BME280;22064;42.672;23.282;2023-04-15T09:47:51;94074.66;;;15.90;35.04
35989;BME280;22064;42.672;23.282;2023-04-15T09:50:18;94083.09;;;15.74;34.89
35989;BME280;22064;42.672;23.282;2023-04-15T09:52:45;94091.06;;;16.15;34.90
35989;BME280;22064;42.672;23.282;2023-04-15T09:55:12;94078.22;;;16.69;33.84
35989;BME280;22064;42.672;23.282;2023-04-15T09:57:39;94074.66;;;16.92;33.07
35989;BME280;22064;42.672;23.282;2023-04-15T10:00:14;94102.59;;;17.38;33.78
35989;BME280;22064;42.672;23.282;2023-04-15T10:02:41;94096.84;;;17.36;37.22
35989;BME280;22064;42.672;23.282;2023-04-15T10:05:13;94091.19;;;17.65;37.00
35989;BME280;22064;42.672;23.282;2023-04-15T10:07:40;94095.16;;;17.54;32.57
35989;BME280;22064;42.672;23.282;2023-04-15T10:10:07;94099.81;;;17.21;31.81
35989;BME280;22064;42.672;23.282;2023-04-15T10:12:36;94083.13;;;17.62;31.77
35989;BME280;22064;42.672;23.282;2023-04-15T10:15:04;94072.16;;;17.91;32.13
35989;BME280;22064;42.672;23.282;2023-04-15T10:17:32;94083.78;;;17.67;33.42
35989;BME280;22064;42.672;23.282;2023-04-15T10:20:00;94083.13;;;17.62;33.04
35989;BME280;22064;42.672;23.282;2023-04-15T10:22:29;94072.88;;;18.05;32.42
35989;BME280;22064;42.672;23.282;2023-04-15T10:24:55;94059.25;;;18.43;32.18
35989;BME280;22064;42.672;23.282;2023-04-15T10:27:22;94068.78;;;18.21;32.82
35989;BME280;22064;42.672;23.282;2023-04-15T10:29:50;94067.63;;;16.60;34.68
35989;BME280;22064;42.672;23.282;2023-04-15T10:32:18;94059.06;;;16.68;34.53
35989;BME280;22064;42.672;23.282;2023-04-15T10:34:46;94066.75;;;17.28;33.89
35989;BME280;22064;42.672;23.282;2023-04-15T10:37:22;94055.47;;;17.50;33.10
35989;BME280;22064;42.672;23.282;2023-04-15T10:39:58;94045.22;;;17.85;33.82
35989;BME280;22064;42.672;23.282;2023-04-15T10:42:33;94043.81;;;17.65;34.61
35989;BME280;22064;42.672;23.282;2023-04-15T10:44:59;94061.13;;;17.80;35.54
35989;BME280;22064;42.672;23.282;2023-04-15T10:47:25;94052.72;;;17.78;35.89
35989;BME280;22064;42.672;23.282;2023-04-15T10:49:56;94053.78;;;17.99;35.00
35989;BME280;22064;42.672;23.282;2023-04-15T10:52:24;94034.06;;;18.19;34.31
35989;BME280;22064;42.672;23.282;2023-04-15T10:55:01;94052.00;;;18.49;34.06
35989;BME280;22064;42.672;23.282;2023-04-15T10:57:34;94041.38;;;17.91;33.78
35989;BME280;22064;42.672;23.282;2023-04-15T11:00:11;94043.63;;;18.15;34.07
35989;BME280;22064;42.672;23.282;2023-04-15T11:05:05;94028.53;;;17.98;34.11
35989;BME280;22064;42.672;23.282;2023-04-15T11:07:52;94033.75;;;17.90;34.89
35989;BME280;22064;42.672;23.282;2023-04-15T11:12:56;94035.19;;;18.36;34.93
35989;BME280;22064;42.672;23.282;2023-04-15T11:15:32;94029.84;;;18.58;34.76
35989;BME280;22064;42.672;23.282;2023-04-15T11:18:11;94040.09;;;18.60;34.23
35989;BME280;22064;42.672;23.282;2023-04-15T11:20:39;94031.25;;;17.62;35.95
35989;BME280;22064;42.672;23.282;2023-04-15T11:23:05;94035.91;;;17.43;35.76
35989;BME280;22064;42.672;23.282;2023-04-15T11:25:33;94034.41;;;17.28;35.20
35989;BME280;22064;42.672;23.282;2023-04-15T11:28:00;94034.59;;;17.31;35.35
35989;BME280;22064;42.672;23.282;2023-04-15T11:30:29;94044.75;;;17.47;32.77
35989;BME280;22064;42.672;23.282;2023-04-15T11:33:00;94032.22;;;17.89;31.71
35989;BME280;22064;42.672;23.282;2023-04-15T11:35:27;94043.44;;;18.43;32.52
35989;BME280;22064;42.672;23.282;2023-04-15T11:37:53;94044.28;;;17.90;32.38
35989;BME280;22064;42.672;23.282;2023-04-15T11:40:25;94037.31;;;17.85;33.44
35989;BME280;22064;42.672;23.282;2023-04-15T11:43:36;94050.09;;;17.55;34.34
35989;BME280;22064;42.672;23.282;2023-04-15T11:45:57;94027.53;;;17.86;33.70
35989;BME280;22064;42.672;23.282;2023-04-15T11:48:34;94027.50;;;17.32;33.56
35989;BME280;22064;42.672;23.282;2023-04-15T11:51:02;94023.69;;;17.24;34.80
35989;BME280;22064;42.672;23.282;2023-04-15T11:56:04;94040.22;;;17.84;34.35
35989;BME280;22064;42.672;23.282;2023-04-15T11:58:30;94035.06;;;17.56;33.87
35989;BME280;22064;42.672;23.282;2023-04-15T12:00:57;94044.69;;;17.38;33.79
35989;BME280;22064;42.672;23.282;2023-04-15T12:03:25;94046.81;;;16.77;34.56
35989;BME280;22064;42.672;23.282;2023-04-15T12:06:15;94039.13;;;16.67;35.40
35989;BME280;22064;42.672;23.282;2023-04-15T12:09:17;94059.06;;;16.68;34.58
35989;BME280;22064;42.672;23.282;2023-04-15T12:11:49;94042.69;;;16.85;33.55
35989;BME280;22064;42.672;23.282;2023-04-15T12:14:28;94038.16;;;17.13;33.81
35989;BME280;22064;42.672;23.282;2023-04-15T12:17:00;94040.69;;;17.41;32.30
35989;BME280;22064;42.672;23.282;2023-04-15T12:19:34;94033.75;;;16.45;32.86
35989;BME280;22064;42.672;23.282;2023-04-15T12:22:05;94034.53;;;16.87;33.24
35989;BME280;22064;42.672;23.282;2023-04-15T12:24:35;94035.06;;;17.56;32.54
35989;BME280;22064;42.672;23.282;2023-04-15T12:27:05;94039.91;;;17.40;32.82
35989;BME280;22064;42.672;23.282;2023-04-15T12:29:33;94045.41;;;16.94;33.63
35989;BME280;22064;42.672;23.282;2023-04-15T12:32:11;94045.84;;;17.46;33.30
35989;BME280;22064;42.672;23.282;2023-04-15T12:34:42;94047.97;;;17.80;33.20
35989;BME280;22064;42.672;23.282;2023-04-15T12:37:11;94033.22;;;18.50;32.17
35989;BME280;22064;42.672;23.282;2023-04-15T12:39:40;94032.47;;;18.58;31.36
35989;BME280;22064;42.672;23.282;2023-04-15T12:42:06;94038.50;;;19.07;31.17
35989;BME280;22064;42.672;23.282;2023-04-15T12:44:34;94042.25;;;18.18;32.63
35989;BME280;22064;42.672;23.282;2023-04-15T12:47:01;94046.66;;;18.00;33.25
35989;BME280;22064;42.672;23.282;2023-04-15T12:49:27;94044.69;;;18.45;33.00
35989;BME280;22064;42.672;23.282;2023-04-15T12:51:55;94049.47;;;18.43;32.46
35989;BME280;22064;42.672;23.282;2023-04-15T12:54:22;94047.16;;;18.42;31.52
35989;BME280;22064;42.672;23.282;2023-04-15T12:56:49;94043.09;;;18.76;31.91
35989;BME280;22064;42.672;23.282;2023-04-15T12:59:16;94060.84;;;19.36;31.05
35989;BME280;22064;42.672;23.282;2023-04-15T13:01:47;94048.19;;;20.02;30.45